메인 페이지
METAR-TAF:

METAR-TAF

공항 :

Ontario International Airport

온다리오, 캘리포니아, 미국

위도: 34-03-12N, 경도: 117-34-33W, 고도: 287m

현재 날씨관측

예보는 31분 전, 20:53시(UTC)에 발표되었습니다.
서남서10kt
온도 28°C
습도 28%
기압 1015 hPa
시정: 16.1km
고도 9000ft 상공 구름 조금

METAR: KONT 132053Z 25010KT 10SM FEW090 28/08 A2996 RMK AO2 SLP134 T02780083 58007 $

시각: 14:24 (21:24 UTC)

예보

예보는 4 시간 0분 전, 17:24시(UTC)에 발표되었습니다.
예보 대상 시간: 13일 18시부터 14일 24시까지 (UTC)
서남서7kt
시정: 8.0km
고도 1500ft 상공 구름 조금
박무
13일 2100시부터 (UTC)
12kt, 순간 최대 풍속 20kt
시정: 10km
맑음
14일 0400시부터 (UTC)
6kt
시정: 10km
맑음
14일 1100시부터 (UTC)
여러 방향의 바람 3kt
시정: 3.2km
고도 700ft 상공 구름 많음
박무
14일 1600시부터 (UTC)
여러 방향의 바람 4kt
시정: 10km
고도 1300ft 상공 구름 보통
14일 2000시부터 (UTC)
12kt, 순간 최대 풍속 20kt
시정: 10km
맑음

TAF: KONT 131724Z 1318/1424 24007KT 5SM BR FEW015 FM132100 26012G20KT P6SM SKC FM140400 26006KT P6SM SKC FM141100 VRB03KT 2SM BR BKN007 FM141600 VRB04KT P6SM SCT013 FM142000 26012G20KT P6SM SKC

4,000개 이상의 공항 관측 자료 및 예보 (METAR 및 TAF 보고).

지도상에서 검색 가능한 기상관측소가 노란 점과 빨간 점으로 표시되어 있습니다.

기상관측소 명을 보려면 표시 위로 마우스를 이동하세요.

날씨 관측과 예보를 보려면 클릭하세요.

지도 변경 : 확대하려면 엑스 표시가 있는 녹색 버튼, 축소하려면 빼기 표시가 있는 녹색 버튼, 다음 페이지의 지도를 보려면 녹색 화살표를 클릭하세요.


METAR-TAF: